Time;durP1;ratioP1;P1;durP2;ratioP2;P2;SDS_P1;SDS_P2;PMS_P1;PMS_P2;Temp;Humidity;BMP_temperature;BMP_pressure;BME280_temperature;BME280_humidity;BME280_pressure;Samples;Min_cycle;Max_cycle;Signal;HPM_P1;HPM_P2
2021/05/17 00:01:59;;;;;;;5.18;4.15;;;11.90;97.00;;;;;;5046949;28;20087;-85
2021/05/17 00:04:32;;;;;;;4.63;3.15;;;11.80;96.60;;;;;;5050782;28;20374;-85
2021/05/17 00:06:58;;;;;;;3.85;3.50;;;11.80;96.80;;;;;;5047922;28;20032;-85
2021/05/17 00:09:24;;;;;;;3.90;3.60;;;11.70;96.80;;;;;;5048495;28;20439;-85
2021/05/17 00:11:51;;;;;;;5.65;3.45;;;11.60;96.80;;;;;;5049084;28;20033;-86
2021/05/17 00:14:18;;;;;;;6.25;3.78;;;11.60;96.70;;;;;;5052604;28;20028;-86
2021/05/17 00:16:44;;;;;;;5.68;3.75;;;11.60;96.60;;;;;;5046990;28;20044;-85
2021/05/17 00:19:10;;;;;;;5.13;3.50;;;11.50;96.70;;;;;;5045280;28;20024;-86
2021/05/17 00:21:36;;;;;;;4.40;3.85;;;11.60;96.50;;;;;;5049520;28;20384;-85
2021/05/17 00:24:03;;;;;;;6.78;4.43;;;11.60;96.20;;;;;;5047672;28;20021;-85
2021/05/17 00:26:29;;;;;;;3.33;3.03;;;11.60;96.10;;;;;;5048549;28;20017;-85
2021/05/17 00:28:54;;;;;;;5.20;3.30;;;11.50;96.20;;;;;;5049964;28;20496;-86
2021/05/17 00:31:20;;;;;;;5.03;3.45;;;11.40;96.40;;;;;;5050294;28;20043;-86
2021/05/17 00:33:46;;;;;;;3.92;3.20;;;11.40;96.20;;;;;;5030568;28;20028;-86
2021/05/17 00:36:12;;;;;;;4.80;3.50;;;11.30;96.10;;;;;;5046310;28;20057;-86
2021/05/17 00:38:38;;;;;;;3.95;3.50;;;11.20;96.20;;;;;;5049197;28;20025;-86
2021/05/17 00:41:04;;;;;;;4.90;3.92;;;11.20;96.20;;;;;;5043693;28;20385;-85
2021/05/17 00:43:37;;;;;;;4.88;4.38;;;11.20;96.10;;;;;;5046245;28;20451;-85
2021/05/17 00:46:05;;;;;;;7.57;4.78;;;11.00;96.00;;;;;;5048634;28;20044;-85
2021/05/17 00:48:31;;;;;;;4.57;4.05;;;10.90;96.40;;;;;;5048175;28;20032;-84
2021/05/17 00:50:58;;;;;;;5.28;4.70;;;10.90;96.40;;;;;;5050122;28;20166;-85
2021/05/17 00:53:24;;;;;;;5.65;4.07;;;10.80;96.20;;;;;;5051779;28;20481;-85
2021/05/17 00:55:50;;;;;;;5.32;3.92;;;10.70;96.50;;;;;;5048218;28;20044;-85
2021/05/17 00:58:16;;;;;;;8.35;4.35;;;10.60;96.50;;;;;;5048964;28;20053;-85
2021/05/17 01:00:42;;;;;;;5.07;4.20;;;10.60;96.50;;;;;;5046295;28;20024;-86
2021/05/17 01:03:09;;;;;;;10.88;5.20;;;10.60;96.60;;;;;;5046317;28;20026;-85
2021/05/17 01:05:36;;;;;;;4.10;3.70;;;10.50;96.70;;;;;;5042568;28;20108;-86
2021/05/17 01:08:03;;;;;;;5.22;4.47;;;10.50;96.60;;;;;;5048693;28;20051;-85
2021/05/17 01:10:30;;;;;;;6.88;3.97;;;10.50;96.40;;;;;;5049789;28;20029;-85
2021/05/17 01:12:56;;;;;;;5.43;4.47;;;10.50;96.40;;;;;;5049513;28;20377;-86
2021/05/17 01:15:23;;;;;;;5.45;4.70;;;10.50;96.30;;;;;;5036287;28;20059;-85
2021/05/17 01:17:49;;;;;;;6.65;5.03;;;10.50;96.20;;;;;;5049450;28;20021;-84
2021/05/17 01:20:18;;;;;;;5.65;4.63;;;10.50;96.10;;;;;;5051114;28;20060;-87
2021/05/17 01:22:59;;;;;;;6.65;4.25;;;10.50;96.20;;;;;;5040751;28;20109;-85
2021/05/17 01:25:27;;;;;;;4.25;3.85;;;10.50;96.20;;;;;;5044358;28;20037;-85
2021/05/17 01:27:54;;;;;;;6.55;4.60;;;10.50;96.20;;;;;;5044533;28;20032;-86
2021/05/17 01:30:22;;;;;;;13.13;5.45;;;10.50;96.20;;;;;;5046057;28;20040;-86
2021/05/17 01:32:51;;;;;;;9.38;5.13;;;10.50;96.30;;;;;;5048270;28;20021;-86
2021/05/17 01:35:18;;;;;;;17.10;6.33;;;10.50;96.40;;;;;;5040008;28;20044;-86
2021/05/17 01:37:45;;;;;;;21.92;6.88;;;10.50;96.30;;;;;;5030692;28;20078;-85
2021/05/17 01:40:12;;;;;;;25.92;7.30;;;10.50;96.30;;;;;;5025215;28;20361;-86
2021/05/17 01:42:40;;;;;;;19.48;7.38;;;10.50;96.30;;;;;;5039389;28;20033;-86
2021/05/17 01:45:07;;;;;;;18.48;7.78;;;10.50;96.70;;;;;;5047522;28;20520;-85
2021/05/17 01:47:41;;;;;;;21.80;7.80;;;10.60;96.80;;;;;;5031694;28;20244;-86
2021/05/17 01:50:13;;;;;;;19.85;7.30;;;10.60;96.90;;;;;;5047770;28;20116;-86
2021/05/17 01:52:39;;;;;;;16.40;7.20;;;10.70;96.70;;;;;;5048000;28;20519;-86
2021/05/17 01:55:10;;;;;;;17.00;7.00;;;10.70;96.90;;;;;;5048384;28;20033;-86
2021/05/17 01:57:36;;;;;;;23.83;8.45;;;10.70;96.70;;;;;;5045389;28;20426;-85
2021/05/17 02:00:05;;;;;;;18.80;8.15;;;10.70;96.90;;;;;;5049487;28;20424;-85
2021/05/17 02:02:31;;;;;;;24.00;8.93;;;10.70;97.30;;;;;;5049289;28;20036;-87
2021/05/17 02:04:57;;;;;;;19.55;10.13;;;10.70;97.50;;;;;;5040877;28;20052;-85
2021/05/17 02:07:23;;;;;;;15.20;8.95;;;10.80;97.70;;;;;;5048658;28;20061;-86
2021/05/17 02:09:52;;;;;;;20.98;9.75;;;10.80;97.90;;;;;;5047227;28;20633;-85
2021/05/17 02:12:23;;;;;;;20.48;9.15;;;10.90;98.10;;;;;;5047112;28;20554;-86
2021/05/17 02:14:53;;;;;;;28.40;10.18;;;10.90;98.00;;;;;;5046406;28;20052;-86
2021/05/17 02:17:20;;;;;;;22.77;9.90;;;10.90;98.20;;;;;;5031875;28;20064;-86
2021/05/17 02:19:46;;;;;;;24.48;9.75;;;10.90;98.50;;;;;;5051776;28;20420;-86
2021/05/17 02:22:12;;;;;;;28.33;10.88;;;10.90;98.40;;;;;;5035895;28;20182;-87
2021/05/17 02:24:38;;;;;;;30.13;11.32;;;10.90;98.60;;;;;;5050227;28;20491;-86
2021/05/17 02:27:08;;;;;;;39.17;12.68;;;11.00;98.70;;;;;;5039526;28;20025;-86
2021/05/17 02:29:35;;;;;;;28.10;12.05;;;11.00;98.80;;;;;;5053379;28;20044;-87
2021/05/17 02:32:01;;;;;;;36.97;13.10;;;11.10;99.20;;;;;;5031761;28;20050;-86
2021/05/17 02:34:27;;;;;;;32.20;13.82;;;11.10;99.20;;;;;;5049880;28;20078;-86
2021/05/17 02:36:53;;;;;;;29.13;12.50;;;11.20;99.40;;;;;;5041913;28;20045;-87
2021/05/17 02:39:19;;;;;;;26.90;12.52;;;11.20;99.30;;;;;;5036839;28;20039;-87
2021/05/17 02:41:46;;;;;;;23.55;13.32;;;11.30;99.30;;;;;;5035775;28;20359;-85
2021/05/17 02:44:12;;;;;;;19.95;12.63;;;11.30;99.30;;;;;;5046830;28;20029;-86
2021/05/17 02:46:38;;;;;;;25.33;13.93;;;11.40;99.30;;;;;;5032580;28;20020;-86
2021/05/17 02:49:04;;;;;;;22.02;13.38;;;11.40;99.00;;;;;;5044437;28;20113;-85
2021/05/17 02:51:30;;;;;;;24.25;13.88;;;11.40;99.10;;;;;;5045444;28;20037;-86
2021/05/17 02:54:08;;;;;;;24.80;14.48;;;11.50;99.00;;;;;;5051050;28;20032;-86
2021/05/17 02:56:36;;;;;;;23.65;14.45;;;11.50;99.10;;;;;;5048675;28;20033;-86
2021/05/17 02:59:05;;;;;;;20.20;14.07;;;11.50;99.10;;;;;;5050654;28;20021;-86
2021/05/17 03:01:39;;;;;;;20.90;13.93;;;11.60;99.10;;;;;;5049514;28;20111;-86
2021/05/17 03:04:18;;;;;;;22.70;14.23;;;11.60;99.10;;;;;;5049427;28;20029;-86
2021/05/17 03:06:58;;;;;;;50.53;17.70;;;11.60;99.10;;;;;;5049274;28;20104;-85
2021/05/17 03:09:25;;;;;;;24.80;15.00;;;11.70;99.10;;;;;;5024091;28;20400;-86
2021/05/17 03:11:53;;;;;;;20.83;14.32;;;11.70;99.10;;;;;;5047172;28;20112;-86
2021/05/17 03:14:20;;;;;;;24.77;15.73;;;11.80;99.20;;;;;;5034115;28;20469;-87
2021/05/17 03:16:51;;;;;;;23.80;16.60;;;11.70;99.20;;;;;;5031472;28;20025;-86
2021/05/17 03:19:18;;;;;;;24.05;15.75;;;11.70;99.30;;;;;;5042119;28;20025;-87
2021/05/17 03:21:44;;;;;;;25.90;15.48;;;11.70;99.40;;;;;;5045986;28;20017;-86
2021/05/17 03:24:12;;;;;;;29.13;16.33;;;11.80;99.40;;;;;;5048852;28;20416;-86
2021/05/17 03:26:39;;;;;;;31.70;15.70;;;11.80;99.40;;;;;;5049224;28;20500;-87
2021/05/17 03:29:05;;;;;;;30.05;15.88;;;11.90;99.20;;;;;;5047304;28;20063;-86
2021/05/17 03:31:30;;;;;;;29.23;16.42;;;11.90;99.20;;;;;;5045956;28;20423;-86
2021/05/17 03:33:57;;;;;;;25.90;16.77;;;11.90;99.30;;;;;;5047546;28;20033;-85
2021/05/17 03:36:23;;;;;;;25.80;16.33;;;12.00;99.20;;;;;;5013836;28;984809;-86
2021/05/17 03:38:49;;;;;;;21.02;15.85;;;11.90;99.20;;;;;;5050164;28;20535;-87
2021/05/17 03:41:14;;;;;;;21.60;15.75;;;12.00;99.20;;;;;;5051734;28;20020;-86
2021/05/17 03:43:40;;;;;;;29.80;15.70;;;12.00;99.20;;;;;;5033521;28;20029;-87
2021/05/17 03:46:06;;;;;;;29.67;15.68;;;12.10;99.10;;;;;;5028619;28;20702;-87
2021/05/17 03:48:31;;;;;;;21.13;15.60;;;12.10;99.10;;;;;;5040478;28;20026;-87
2021/05/17 03:50:57;;;;;;;32.05;14.93;;;12.20;99.00;;;;;;5049011;28;20057;-85
2021/05/17 03:53:23;;;;;;;29.88;15.18;;;12.20;98.80;;;;;;5049058;28;20025;-86
2021/05/17 03:55:49;;;;;;;21.10;14.60;;;12.20;98.80;;;;;;5040272;28;20029;-87
2021/05/17 03:58:14;;;;;;;25.08;14.50;;;12.20;98.90;;;;;;5041807;28;20080;-86
2021/05/17 04:00:40;;;;;;;52.47;16.25;;;12.20;98.80;;;;;;5046606;28;20480;-86
2021/05/17 04:03:13;;;;;;;22.38;14.63;;;12.20;98.60;;;;;;5046862;28;20029;-86
2021/05/17 04:13:36;;;;;;;18.35;13.10;;;12.40;98.40;;;;;;5046975;28;20079;-86
2021/05/17 04:16:02;;;;;;;17.25;13.10;;;12.40;98.60;;;;;;5044968;28;20033;-85
2021/05/17 04:18:27;;;;;;;16.05;13.50;;;12.50;98.30;;;;;;5030875;28;20085;-86
2021/05/17 04:20:53;;;;;;;25.75;13.02;;;12.60;98.10;;;;;;5050132;28;20068;-85
2021/05/17 04:23:25;;;;;;;27.58;13.23;;;12.60;98.10;;;;;;5052352;28;20017;-84
2021/05/17 04:25:51;;;;;;;21.23;12.90;;;12.60;98.00;;;;;;5039665;28;20034;-86
2021/05/17 04:28:18;;;;;;;20.23;13.05;;;12.60;98.10;;;;;;5030163;28;20083;-87
2021/05/17 04:30:44;;;;;;;14.60;13.10;;;12.60;98.10;;;;;;5047545;28;20041;-86
2021/05/17 04:33:10;;;;;;;22.35;12.70;;;12.60;98.40;;;;;;5047065;28;20026;-86
2021/05/17 04:35:35;;;;;;;20.73;13.75;;;12.70;98.10;;;;;;5051028;28;20052;-86
2021/05/17 04:38:01;;;;;;;16.27;12.90;;;12.70;98.30;;;;;;5030601;28;20116;-87
2021/05/17 04:40:27;;;;;;;18.02;13.90;;;12.70;98.30;;;;;;5047442;28;20040;-89
2021/05/17 04:42:52;;;;;;;18.13;13.48;;;12.70;98.10;;;;;;5048965;28;20448;-87
2021/05/17 04:45:20;;;;;;;16.17;14.32;;;12.70;98.00;;;;;;5049845;28;20025;-86
2021/05/17 04:47:46;;;;;;;19.70;15.73;;;12.70;98.20;;;;;;5038026;28;20028;-86
2021/05/17 04:50:11;;;;;;;16.40;14.73;;;12.80;98.30;;;;;;5030715;28;20029;-87
2021/05/17 04:52:37;;;;;;;17.77;14.48;;;12.80;98.30;;;;;;5030418;28;20472;-86
2021/05/17 04:55:04;;;;;;;17.23;15.43;;;13.00;98.00;;;;;;5028897;28;20128;-86
2021/05/17 04:57:30;;;;;;;16.67;15.00;;;13.00;97.90;;;;;;5040413;28;20473;-87
2021/05/17 04:59:55;;;;;;;18.58;13.63;;;13.10;97.90;;;;;;5039324;28;20056;-87
2021/05/17 05:02:21;;;;;;;14.80;13.13;;;13.10;97.40;;;;;;5051001;28;20051;-86
2021/05/17 05:04:47;;;;;;;17.25;14.07;;;13.10;97.30;;;;;;5032458;28;20064;-86
2021/05/17 05:07:14;;;;;;;27.70;14.75;;;13.20;97.50;;;;;;5047879;28;20059;-86
2021/05/17 05:09:39;;;;;;;16.17;14.27;;;13.20;97.00;;;;;;5045940;28;20025;-87
2021/05/17 05:12:05;;;;;;;16.50;14.18;;;13.30;97.50;;;;;;5047871;28;21361;-85
2021/05/17 05:14:31;;;;;;;17.42;15.65;;;13.30;97.20;;;;;;5049953;28;20156;-86
2021/05/17 05:16:57;;;;;;;15.68;14.05;;;13.30;97.40;;;;;;5048616;28;20542;-87
2021/05/17 05:19:24;;;;;;;16.98;15.18;;;13.50;97.50;;;;;;5042314;28;20484;-87
2021/05/17 05:21:50;;;;;;;20.50;14.77;;;13.50;97.00;;;;;;5039413;28;20025;-86
2021/05/17 05:24:16;;;;;;;16.33;14.63;;;13.50;96.90;;;;;;5043912;28;20028;-85
2021/05/17 05:27:07;;;;;;;16.70;14.85;;;13.50;96.80;;;;;;5032661;28;20059;-85
2021/05/17 05:29:41;;;;;;;15.70;14.10;;;13.60;96.90;;;;;;5048276;28;20372;-85
2021/05/17 05:34:33;;;;;;;16.27;14.48;;;13.80;96.30;;;;;;5048350;28;20131;-85
2021/05/17 05:36:59;;;;;;;16.35;14.65;;;13.80;96.30;;;;;;5045151;28;20037;-83
2021/05/17 05:39:25;;;;;;;24.80;15.90;;;13.90;95.90;;;;;;5049119;28;20025;-86
2021/05/17 05:41:51;;;;;;;18.10;15.60;;;13.80;95.80;;;;;;5048915;28;20021;-85
2021/05/17 05:44:17;;;;;;;15.73;14.07;;;13.80;96.20;;;;;;5049618;28;20057;-85
2021/05/17 05:46:43;;;;;;;16.08;13.85;;;13.80;96.40;;;;;;5045946;28;20098;-85
2021/05/17 05:49:10;;;;;;;17.73;15.90;;;13.80;96.10;;;;;;5047555;28;20036;-84
2021/05/17 05:51:35;;;;;;;16.08;14.52;;;13.80;96.50;;;;;;5048412;28;20039;-85
2021/05/17 05:54:01;;;;;;;18.17;15.27;;;13.90;96.30;;;;;;5036247;28;20029;-85
2021/05/17 05:56:28;;;;;;;16.15;14.55;;;14.00;96.10;;;;;;5046615;28;20036;-85
2021/05/17 05:58:54;;;;;;;16.90;15.23;;;14.10;95.80;;;;;;5049750;28;20029;-86
2021/05/17 06:01:19;;;;;;;18.95;15.60;;;14.30;95.90;;;;;;5049377;28;20032;-85
2021/05/17 06:03:45;;;;;;;16.15;14.52;;;14.30;96.20;;;;;;5047433;28;20047;-85
2021/05/17 06:06:12;;;;;;;15.88;14.27;;;14.40;96.00;;;;;;5047939;28;20099;-85
2021/05/17 06:08:40;;;;;;;16.48;14.77;;;14.50;95.80;;;;;;5050172;28;20036;-85
2021/05/17 06:11:06;;;;;;;15.48;13.88;;;14.50;95.20;;;;;;5047174;28;20463;-86
2021/05/17 06:13:34;;;;;;;16.38;14.48;;;14.60;95.30;;;;;;5028297;28;20431;-85
2021/05/17 06:16:00;;;;;;;15.48;13.57;;;14.70;95.00;;;;;;5047854;28;20025;-84
2021/05/17 06:18:26;;;;;;;16.15;14.45;;;14.70;95.20;;;;;;5047624;28;20027;-84
2021/05/17 06:20:54;;;;;;;16.95;15.25;;;14.60;95.20;;;;;;5048306;28;20018;-84
2021/05/17 06:23:20;;;;;;;17.33;15.57;;;14.60;95.60;;;;;;5050771;28;20028;-84
2021/05/17 06:25:46;;;;;;;16.20;14.52;;;14.70;95.40;;;;;;5046526;28;20017;-85
2021/05/17 06:28:12;;;;;;;15.27;13.80;;;14.70;95.50;;;;;;5047666;28;20491;-85
2021/05/17 06:30:47;;;;;;;17.48;15.77;;;14.70;95.50;;;;;;5047576;28;20013;-85
2021/05/17 06:33:14;;;;;;;17.70;15.85;;;14.90;95.60;;;;;;5047291;28;20029;-85
2021/05/17 06:35:45;;;;;;;17.95;16.05;;;14.90;95.40;;;;;;5049798;28;20072;-85
2021/05/17 06:38:13;;;;;;;17.05;14.77;;;15.00;95.00;;;;;;5049465;28;20028;-85
2021/05/17 06:40:38;;;;;;;16.13;14.45;;;15.10;94.60;;;;;;5047491;28;20044;-86
2021/05/17 06:43:04;;;;;;;17.00;15.20;;;15.10;94.40;;;;;;5032410;28;20432;-84
2021/05/17 06:45:31;;;;;;;15.25;13.75;;;15.20;94.50;;;;;;5046454;28;20029;-84
2021/05/17 06:47:56;;;;;;;15.52;14.02;;;15.20;94.10;;;;;;5031609;28;20049;-83
2021/05/17 06:50:23;;;;;;;15.63;13.80;;;15.40;94.40;;;;;;5050930;28;20091;-85
2021/05/17 06:52:49;;;;;;;17.50;15.48;;;15.50;94.10;;;;;;5031433;28;20040;-84
2021/05/17 06:55:18;;;;;;;16.98;14.02;;;15.60;94.70;;;;;;5046780;28;20094;-83
2021/05/17 07:00:21;;;;;;;15.27;13.75;;;15.90;94.00;;;;;;5047009;28;20088;-84
2021/05/17 07:02:47;;;;;;;16.38;14.77;;;16.00;93.80;;;;;;5038078;28;20535;-86
2021/05/17 07:05:14;;;;;;;14.75;13.32;;;16.10;94.60;;;;;;5027003;28;20025;-85
2021/05/17 07:12:50;;;;;;;17.10;15.40;;;16.30;93.70;;;;;;5047977;28;20559;-85
2021/05/17 07:15:16;;;;;;;14.70;13.30;;;16.30;93.50;;;;;;5033445;28;20022;-86
2021/05/17 07:17:44;;;;;;;14.23;12.82;;;16.40;93.20;;;;;;5046101;28;20031;-86
2021/05/17 07:20:12;;;;;;;16.00;14.20;;;16.60;94.00;;;;;;5047004;28;20024;-84
2021/05/17 07:25:22;;;;;;;12.65;10.88;;;16.60;92.40;;;;;;5047664;28;20127;-84
2021/05/17 07:27:47;;;;;;;13.82;12.45;;;16.70;93.10;;;;;;5045933;28;20029;-85
2021/05/17 07:30:13;;;;;;;10.85;9.30;;;16.70;94.10;;;;;;5046026;28;20013;-85
2021/05/17 07:32:39;;;;;;;11.02;9.23;;;16.90;93.00;;;;;;5028461;28;20029;-85
2021/05/17 07:35:05;;;;;;;11.82;10.63;;;16.80;91.30;;;;;;5041379;28;20048;-84
2021/05/17 07:37:32;;;;;;;14.77;10.93;;;16.90;92.60;;;;;;5049905;28;20060;-84
2021/05/17 07:39:58;;;;;;;11.05;9.85;;;17.00;91.90;;;;;;5045484;28;20436;-85
2021/05/17 07:42:24;;;;;;;10.38;9.20;;;17.00;92.30;;;;;;5049855;28;20041;-86
2021/05/17 07:44:50;;;;;;;9.70;8.20;;;17.00;91.90;;;;;;5046899;28;20048;-85
2021/05/17 07:47:16;;;;;;;9.85;8.05;;;17.10;92.40;;;;;;5029995;28;20767;-86
2021/05/17 07:49:43;;;;;;;8.93;8.00;;;17.10;92.10;;;;;;5031865;28;20031;-85
2021/05/17 07:52:09;;;;;;;9.48;7.38;;;17.20;92.40;;;;;;5047035;28;20067;-84
2021/05/17 07:54:37;;;;;;;9.02;7.57;;;17.20;92.20;;;;;;5049163;28;20025;-85
2021/05/17 07:57:04;;;;;;;9.65;7.82;;;17.20;92.10;;;;;;5047213;28;20037;-86
2021/05/17 07:59:32;;;;;;;8.55;6.22;;;17.40;91.60;;;;;;5049764;28;20028;-84
2021/05/17 08:01:58;;;;;;;8.52;7.07;;;17.50;92.10;;;;;;5045858;28;20036;-85
2021/05/17 08:04:24;;;;;;;7.38;5.88;;;17.60;91.00;;;;;;5049864;28;20400;-84
2021/05/17 08:06:51;;;;;;;6.57;5.40;;;17.60;90.20;;;;;;5044588;28;20032;-84
2021/05/17 08:09:17;;;;;;;8.00;6.32;;;17.60;90.70;;;;;;5041239;28;20017;-85
2021/05/17 08:11:45;;;;;;;7.10;6.40;;;17.70;91.30;;;;;;5048883;28;20040;-85
2021/05/17 08:14:11;;;;;;;6.65;5.35;;;17.80;90.40;;;;;;5044827;28;20013;-85
2021/05/17 08:16:37;;;;;;;5.75;4.88;;;17.90;88.30;;;;;;5047931;28;20033;-86
2021/05/17 08:19:03;;;;;;;5.95;4.55;;;17.90;88.40;;;;;;5044346;28;20017;-86
2021/05/17 08:21:29;;;;;;;5.18;4.20;;;18.00;90.10;;;;;;5032440;28;20565;-87
2021/05/17 08:23:57;;;;;;;8.18;4.93;;;18.10;86.10;;;;;;5048817;28;20069;-85
2021/05/17 08:26:23;;;;;;;5.63;4.28;;;18.10;89.40;;;;;;5052661;28;20413;-85
2021/05/17 08:28:48;;;;;;;5.18;3.85;;;18.20;86.80;;;;;;5046968;28;20025;-85
2021/05/17 08:31:16;;;;;;;5.68;3.70;;;18.30;86.60;;;;;;5030844;28;20131;-84
2021/05/17 08:33:43;;;;;;;3.92;3.53;;;18.20;84.20;;;;;;5049023;28;20021;-85
2021/05/17 08:36:09;;;;;;;4.55;3.63;;;18.30;86.20;;;;;;5043049;28;20051;-85
2021/05/17 08:38:35;;;;;;;4.72;2.97;;;18.50;84.80;;;;;;5041444;28;20057;-85
2021/05/17 08:41:02;;;;;;;4.88;4.03;;;18.60;84.60;;;;;;5047250;28;20040;-85
2021/05/17 08:43:28;;;;;;;4.35;2.97;;;18.60;82.60;;;;;;5046176;28;20024;-85
2021/05/17 08:45:54;;;;;;;5.35;4.15;;;18.80;83.80;;;;;;5049434;28;20614;-85
2021/05/17 08:48:20;;;;;;;2.85;2.50;;;18.80;84.20;;;;;;5047808;28;20481;-86
2021/05/17 08:50:46;;;;;;;5.38;2.50;;;18.90;78.90;;;;;;5048999;28;20035;-86
2021/05/17 08:53:12;;;;;;;5.82;2.78;;;19.10;80.70;;;;;;5049944;28;20040;-85
2021/05/17 08:55:39;;;;;;;3.88;3.22;;;19.30;80.00;;;;;;5046337;28;20187;-87
2021/05/17 08:58:05;;;;;;;7.80;2.72;;;19.50;78.60;;;;;;5037168;28;20070;-85
2021/05/17 09:00:30;;;;;;;3.85;1.90;;;19.60;75.10;;;;;;5041395;28;20029;-85
2021/05/17 09:02:56;;;;;;;3.35;2.10;;;19.10;70.10;;;;;;5047075;28;20067;-86
2021/05/17 09:05:24;;;;;;;2.90;2.08;;;19.20;77.50;;;;;;5048478;28;20033;-86
2021/05/17 09:07:54;;;;;;;4.35;1.95;;;19.20;74.70;;;;;;5044529;28;20021;-85
2021/05/17 09:10:37;;;;;;;5.22;2.35;;;19.30;75.80;;;;;;5045555;28;20083;-86
2021/05/17 09:13:06;;;;;;;2.67;1.95;;;19.30;75.00;;;;;;5042316;28;20037;-86
2021/05/17 09:15:37;;;;;;;3.60;2.50;;;19.30;72.90;;;;;;5044299;28;20032;-86
2021/05/17 09:18:11;;;;;;;4.13;2.30;;;19.10;75.00;;;;;;5043465;28;20120;-85
2021/05/17 09:20:38;;;;;;;4.53;2.00;;;19.30;74.40;;;;;;5049716;28;20029;-84
2021/05/17 09:23:09;;;;;;;2.67;2.10;;;19.40;75.60;;;;;;5045827;28;20067;-85
2021/05/17 09:25:37;;;;;;;3.05;2.03;;;19.50;75.00;;;;;;5044432;28;20025;-86
2021/05/17 09:28:10;;;;;;;2.78;1.80;;;19.70;73.70;;;;;;5040771;28;20057;-84
2021/05/17 09:30:53;;;;;;;3.38;1.83;;;19.70;70.80;;;;;;5031162;28;20385;-85
2021/05/17 09:33:22;;;;;;;2.92;1.95;;;19.70;66.40;;;;;;5047157;28;20037;-86
2021/05/17 09:35:49;;;;;;;2.78;1.42;;;19.70;64.80;;;;;;5042712;28;20124;-85
2021/05/17 09:38:23;;;;;;;2.58;2.03;;;19.80;69.90;;;;;;5047761;28;20037;-85
2021/05/17 09:41:06;;;;;;;2.47;1.80;;;20.10;71.80;;;;;;5044781;28;20112;-86
2021/05/17 09:43:33;;;;;;;3.13;2.80;;;20.20;72.50;;;;;;5044720;28;20079;-85
2021/05/17 09:46:00;;;;;;;5.43;2.85;;;20.30;75.60;;;;;;5043321;28;20032;-86
2021/05/17 09:48:29;;;;;;;3.10;2.40;;;20.50;72.80;;;;;;5025918;28;20055;-84
2021/05/17 09:50:57;;;;;;;4.15;2.78;;;20.70;72.00;;;;;;5046563;28;20496;-84
2021/05/17 09:53:25;;;;;;;3.45;2.72;;;20.50;69.00;;;;;;5033900;28;20111;-86
2021/05/17 09:55:51;;;;;;;3.40;2.85;;;20.30;72.30;;;;;;5046246;28;20052;-86
2021/05/17 09:58:30;;;;;;;3.08;2.58;;;20.10;71.90;;;;;;5041728;28;20129;-87
2021/05/17 10:01:15;;;;;;;3.42;2.72;;;20.00;71.90;;;;;;5043561;28;20073;-84
2021/05/17 10:03:49;;;;;;;3.35;2.53;;;19.90;71.90;;;;;;5041774;28;20029;-84
2021/05/17 10:06:23;;;;;;;2.95;2.28;;;19.80;71.40;;;;;;5047326;28;20017;-85
2021/05/17 10:08:50;;;;;;;4.93;2.60;;;19.80;69.50;;;;;;5048340;28;20036;-85
2021/05/17 10:11:18;;;;;;;3.13;2.45;;;19.80;69.30;;;;;;5048588;28;20128;-86
2021/05/17 10:13:44;;;;;;;5.60;3.05;;;20.00;71.50;;;;;;5047937;28;20029;-86
2021/05/17 10:16:13;;;;;;;3.95;3.05;;;20.10;69.90;;;;;;5027941;28;20120;-86
2021/05/17 10:18:40;;;;;;;3.90;3.05;;;20.30;70.00;;;;;;5038903;28;20469;-87
2021/05/17 10:21:08;;;;;;;4.18;3.60;;;20.50;68.40;;;;;;5046027;28;20021;-86
2021/05/17 10:23:36;;;;;;;3.08;2.33;;;20.70;69.90;;;;;;5046759;28;20049;-87
2021/05/17 10:26:24;;;;;;;3.35;2.60;;;20.80;65.90;;;;;;5047506;28;20087;-86
2021/05/17 10:29:01;;;;;;;5.13;3.13;;;21.00;67.10;;;;;;5046871;28;20021;-86
2021/05/17 10:31:27;;;;;;;7.03;2.72;;;20.90;67.10;;;;;;5047312;28;20033;-88
2021/05/17 10:34:03;;;;;;;3.90;3.20;;;20.90;66.30;;;;;;5039948;28;20033;-86
2021/05/17 10:36:52;;;;;;;3.92;3.13;;;21.00;68.30;;;;;;5046478;28;20071;-88
2021/05/17 10:39:19;;;;;;;6.75;3.70;;;21.10;67.60;;;;;;5044775;28;20017;-86
2021/05/17 10:48:20;;;;;;;4.63;3.30;;;21.20;66.10;;;;;;5048022;28;20586;-86
2021/05/17 10:51:16;;;;;;;4.65;2.83;;;21.00;62.80;;;;;;5050023;28;20068;-87
2021/05/17 10:54:08;;;;;;;3.33;2.92;;;20.90;62.80;;;;;;5039960;28;20381;-87
2021/05/17 11:02:14;;;;;;;4.07;3.50;;;20.90;64.90;;;;;;4956157;28;20071;-87
2021/05/17 11:04:52;;;;;;;4.25;3.53;;;20.80;66.10;;;;;;4952066;28;20090;-86
2021/05/17 11:07:30;;;;;;;4.57;3.80;;;20.80;67.60;;;;;;4948418;29;20049;-86
2021/05/17 11:10:06;;;;;;;6.32;4.13;;;20.80;65.70;;;;;;4946806;28;20519;-87
2021/05/17 11:12:37;;;;;;;5.65;4.53;;;20.70;65.80;;;;;;4948982;29;20438;-87
2021/05/17 11:15:10;;;;;;;5.28;3.60;;;20.60;66.00;;;;;;4951146;29;20039;-88
2021/05/17 11:18:02;;;;;;;5.40;3.80;;;20.50;65.60;;;;;;4951092;28;20031;-85
2021/05/17 11:23:15;;;;;;;4.75;3.72;;;20.70;64.70;;;;;;4951125;28;20484;-86
2021/05/17 11:25:51;;;;;;;4.70;3.65;;;20.90;64.10;;;;;;4951365;28;20027;-88
2021/05/17 11:31:44;;;;;;;4.63;3.40;;;21.10;67.80;;;;;;4947087;28;20046;-84
2021/05/17 11:34:15;;;;;;;5.43;3.90;;;21.20;63.60;;;;;;5027644;28;20607;-86
2021/05/17 11:36:49;;;;;;;5.18;3.40;;;21.30;66.00;;;;;;5046431;28;20053;-87
2021/05/17 11:39:23;;;;;;;5.53;3.20;;;21.30;65.60;;;;;;5049361;28;20037;-85
2021/05/17 11:42:02;;;;;;;5.55;3.20;;;21.20;63.60;;;;;;5044965;28;20048;-85
2021/05/17 11:47:27;;;;;;;5.05;3.33;;;21.00;63.70;;;;;;5048662;28;20086;-87
2021/05/17 11:49:54;;;;;;;4.68;3.10;;;21.00;63.80;;;;;;5046206;28;20108;-88
2021/05/17 11:52:29;;;;;;;5.22;3.45;;;21.00;66.10;;;;;;5043865;28;20033;-86
2021/05/17 11:55:00;;;;;;;3.55;2.70;;;21.10;63.70;;;;;;5044865;28;20024;-87
2021/05/17 11:57:27;;;;;;;3.17;2.88;;;21.10;62.60;;;;;;5035604;28;20064;-86
2021/05/17 11:59:53;;;;;;;2.88;2.47;;;21.20;63.00;;;;;;5034108;28;20049;-87
2021/05/17 12:02:19;;;;;;;3.75;2.75;;;21.20;62.20;;;;;;5040754;28;20500;-88
2021/05/17 12:04:46;;;;;;;3.88;2.58;;;21.30;60.80;;;;;;5039528;28;20500;-86
2021/05/17 12:07:15;;;;;;;3.20;2.20;;;21.10;62.60;;;;;;5043134;28;20029;-86
2021/05/17 12:09:42;;;;;;;4.25;1.92;;;21.10;61.90;;;;;;5029302;28;20052;-87
2021/05/17 12:12:12;;;;;;;6.28;2.55;;;21.00;60.90;;;;;;5042180;28;20061;-86
2021/05/17 12:14:42;;;;;;;;;;;20.90;62.60;;;;;;5032665;28;20033;-86
2021/05/17 12:17:16;;;;;;;3.07;2.07;;;20.80;61.70;;;;;;5042454;28;19909;-87
2021/05/17 12:19:44;;;;;;;4.63;2.00;;;20.80;63.20;;;;;;5037934;28;20284;-88
2021/05/17 12:22:19;;;;;;;3.28;2.40;;;20.90;62.10;;;;;;5024317;28;20038;-87
2021/05/17 12:24:45;;;;;;;4.68;2.42;;;20.90;62.90;;;;;;5025581;28;20022;-86
2021/05/17 12:27:13;;;;;;;5.13;2.15;;;21.00;63.70;;;;;;5022165;28;20038;-86
2021/05/17 12:29:54;;;;;;;3.63;2.50;;;21.10;62.00;;;;;;5033890;28;20036;-88
2021/05/17 12:32:25;;;;;;;3.25;2.47;;;21.20;62.00;;;;;;5046928;28;20049;-87
2021/05/17 12:34:54;;;;;;;2.92;2.17;;;21.20;63.20;;;;;;5023379;28;20072;-87
2021/05/17 12:37:22;;;;;;;3.38;2.13;;;21.30;60.50;;;;;;5042219;28;20067;-86
2021/05/17 12:40:10;;;;;;;2.97;2.20;;;21.40;59.60;;;;;;5043610;28;20021;-86
2021/05/17 12:42:36;;;;;;;2.50;2.15;;;21.30;62.00;;;;;;5035712;28;20067;-87
2021/05/17 12:45:07;;;;;;;4.32;2.53;;;21.40;61.40;;;;;;5039148;28;20017;-86
2021/05/17 12:47:41;;;;;;;5.60;3.15;;;21.40;62.40;;;;;;5044049;28;20067;-90
2021/05/17 12:50:32;;;;;;;3.83;2.25;;;21.40;60.00;;;;;;5027695;28;20393;-87
2021/05/17 12:53:02;;;;;;;;;;;21.50;59.80;;;;;;5037335;28;20049;-88
2021/05/17 12:55:28;;;;;;;3.33;2.42;;;21.50;58.30;;;;;;5040809;28;19913;-87
2021/05/17 12:57:59;;;;;;;2.50;1.95;;;21.60;56.80;;;;;;5040257;28;20119;-88
2021/05/17 13:00:44;;;;;;;3.38;2.47;;;21.70;57.30;;;;;;5036693;28;20059;-87
2021/05/17 13:03:17;;;;;;;3.35;2.35;;;21.80;58.70;;;;;;5032789;28;20067;-87
2021/05/17 13:06:05;;;;;;;2.95;2.15;;;21.80;55.50;;;;;;5044933;28;20067;-87
2021/05/17 13:08:37;;;;;;;3.38;2.28;;;22.00;57.60;;;;;;5035145;28;20457;-88
2021/05/17 13:11:10;;;;;;;4.50;1.95;;;22.10;55.90;;;;;;5018680;28;20445;-87
2021/05/17 13:13:51;;;;;;;3.80;1.73;;;22.00;54.90;;;;;;5040308;28;20029;-87
2021/05/17 13:16:17;;;;;;;3.90;1.80;;;22.20;55.20;;;;;;5037248;28;20382;-88
2021/05/17 13:19:11;;;;;;;2.83;1.60;;;22.20;56.60;;;;;;5039136;28;20033;-87
2021/05/17 13:32:13;;;;;;;2.90;1.90;;;22.00;57.30;;;;;;5042212;28;20113;-88
2021/05/17 13:34:41;;;;;;;2.55;1.60;;;22.10;55.80;;;;;;5037781;28;20033;-87
2021/05/17 13:37:06;;;;;;;3.92;2.20;;;22.00;55.80;;;;;;5039309;28;20043;-87
2021/05/17 13:39:32;;;;;;;3.20;1.67;;;22.00;56.30;;;;;;5044095;28;20381;-87